createdAt,value
2019-02-17T00:00:03.611Z,77.34
2019-02-17T00:05:09.586Z,77.2
2019-02-17T00:10:20.252Z,77.25
2019-02-17T00:15:06.894Z,78.62
2019-02-17T00:20:08.173Z,78.93
2019-02-17T00:25:07.988Z,77.03
2019-02-17T00:30:02.479Z,76.79
2019-02-17T00:35:07.567Z,76.42
2019-02-17T00:40:06.714Z,76.37
2019-02-17T00:45:03.170Z,76.45
2019-02-17T00:50:07.434Z,76.45
2019-02-17T00:55:06.407Z,76.01
2019-02-17T01:00:02.948Z,75.46
2019-02-17T01:05:07.298Z,75.45
2019-02-17T01:10:05.735Z,76.04
2019-02-17T01:15:05.316Z,76.56
2019-02-17T01:20:05.033Z,76.92
2019-02-17T01:25:05.715Z,76.39
2019-02-17T01:30:03.224Z,76.71
2019-02-17T01:35:05.228Z,77.23
2019-02-17T01:40:07.570Z,77.66
2019-02-17T01:45:07.917Z,77.97
2019-02-17T01:50:04.809Z,78.09
2019-02-17T01:55:06.287Z,78.3
2019-02-17T02:00:04.472Z,78.78
2019-02-17T02:05:11.124Z,78.93
2019-02-17T02:10:12.565Z,79.24
2019-02-17T02:15:13.387Z,79.19
2019-02-17T02:20:07.448Z,79.42
2019-02-17T02:25:09.330Z,79.7
2019-02-17T02:30:08.964Z,80.02
2019-02-17T02:35:07.243Z,80.28
2019-02-17T02:40:05.913Z,80.73
2019-02-17T02:45:03.546Z,80.77
2019-02-17T02:50:06.064Z,81.02
2019-02-17T02:55:06.840Z,80.96
2019-02-17T03:00:04.324Z,80.46
2019-02-17T03:05:06.102Z,80.38
2019-02-17T03:10:06.758Z,80.67
2019-02-17T03:15:05.162Z,80.62
2019-02-17T03:20:10.618Z,80.82
2019-02-17T03:25:09.215Z,80.79
2019-02-17T03:30:10.279Z,80.51
2019-02-17T03:35:10.734Z,79.63
2019-02-17T03:40:08.947Z,79.12
2019-02-17T03:45:05.658Z,79.19
2019-02-17T03:50:10.795Z,79.35
2019-02-17T03:55:09.550Z,79.51
2019-02-17T04:00:19.379Z,79.8
2019-02-17T04:05:10.107Z,79.93
2019-02-17T04:10:05.361Z,79.93
2019-02-17T04:15:06.202Z,79.89
2019-02-17T04:20:06.681Z,79.98
2019-02-17T04:25:09.844Z,79.99
2019-02-17T04:30:04.256Z,80.15
2019-02-17T04:35:07.959Z,79.84
2019-02-17T04:40:08.759Z,79.99
2019-02-17T04:45:05.313Z,80.29
2019-02-17T04:50:09.066Z,80.64
2019-02-17T04:55:07.122Z,80.94
2019-02-17T05:00:02.845Z,81.12
2019-02-17T05:05:09.640Z,81.36
2019-02-17T05:10:05.449Z,81.6
2019-02-17T05:15:03.961Z,82.03
2019-02-17T05:20:06.006Z,82.6
2019-02-17T05:25:07.419Z,83.05
2019-02-17T05:30:02.922Z,83.28
2019-02-17T05:35:05.961Z,83.84
2019-02-17T05:40:06.613Z,84.15
2019-02-17T05:45:03.078Z,84.35
2019-02-17T05:50:07.475Z,84.6
2019-02-17T05:55:07.060Z,84.72
2019-02-17T06:00:02.642Z,84.74
2019-02-17T06:05:07.535Z,84.51
2019-02-17T06:10:05.968Z,84.54
2019-02-17T06:15:02.579Z,84.52
2019-02-17T06:20:06.407Z,84.58
2019-02-17T06:25:07.403Z,84.69
2019-02-17T06:30:02.868Z,84.49
2019-02-17T06:35:06.548Z,84.38
2019-02-17T06:40:07.281Z,84.72
2019-02-17T06:45:02.752Z,84.66
2019-02-17T06:50:06.798Z,84.73
2019-02-17T06:55:05.627Z,84.98
2019-02-17T07:00:03.148Z,85.18
2019-02-17T07:05:04.124Z,85.21
2019-02-17T07:10:05.168Z,84.97
2019-02-17T07:15:02.718Z,84.71
2019-02-17T07:20:04.438Z,84.24
2019-02-17T07:25:05.709Z,83.69
2019-02-17T07:30:04.257Z,82.94
2019-02-17T07:35:05.186Z,82.37
2019-02-17T07:40:03.970Z,82.12
2019-02-17T07:45:02.477Z,80.94
2019-02-17T07:50:04.162Z,80.77
2019-02-17T07:55:03.995Z,79.53
2019-02-17T08:00:02.853Z,78.93
2019-02-17T08:05:06.131Z,77.78
2019-02-17T08:10:03.902Z,76.79
2019-02-17T08:15:07.444Z,75.7
2019-02-17T08:20:06.797Z,75
2019-02-17T08:25:10.088Z,74.49
2019-02-17T08:30:03.683Z,73.67
2019-02-17T08:35:07.013Z,73.14
2019-02-17T08:40:08.842Z,72.27
2019-02-17T08:45:04.630Z,71.73
2019-02-17T08:50:09.297Z,71.31
2019-02-17T08:55:07.240Z,70.34
2019-02-17T09:00:03.923Z,70.03
2019-02-17T09:05:08.760Z,69.88
2019-02-17T09:10:05.825Z,69.29
2019-02-17T09:15:04.390Z,68.59
2019-02-17T09:20:08.549Z,67.64
2019-02-17T09:25:07.881Z,66.44
2019-02-17T09:30:04.388Z,65.93
2019-02-17T09:35:07.359Z,66.83
2019-02-17T09:40:06.980Z,67.06
2019-02-17T09:45:03.591Z,66.15
2019-02-17T09:50:07.573Z,66.41
2019-02-17T09:55:06.210Z,64.78
2019-02-17T10:00:03.758Z,63.35
2019-02-17T10:05:07.669Z,63.09
2019-02-17T10:10:06.621Z,61.88
2019-02-17T10:15:04.244Z,61.41
2019-02-17T10:20:06.199Z,61.44
2019-02-17T10:25:07.757Z,61.25
2019-02-17T10:30:03.233Z,61.15
2019-02-17T10:35:06.456Z,60.39
2019-02-17T10:40:08.232Z,60.2
2019-02-17T10:45:02.648Z,59.61
2019-02-17T10:50:06.850Z,60.17
2019-02-17T10:55:08.911Z,59.74
2019-02-17T11:00:03.408Z,58.69
2019-02-17T11:05:06.797Z,57.98
2019-02-17T11:10:11.085Z,58.08
2019-02-17T11:15:02.655Z,57.89
2019-02-17T11:20:06.640Z,57.4
2019-02-17T11:25:09.544Z,57.03
2019-02-17T11:30:05.390Z,56.64
2019-02-17T11:35:06.813Z,56.08
2019-02-17T11:40:09.577Z,55.23
2019-02-17T11:45:03.130Z,54.71
2019-02-17T11:50:07.881Z,54.67
2019-02-17T11:55:09.633Z,54.17
2019-02-17T12:00:04.246Z,53.84
2019-02-17T12:05:09.270Z,54.02
2019-02-17T12:10:07.375Z,53.76
2019-02-17T12:15:03.433Z,54.03
2019-02-17T12:20:05.118Z,53.47
2019-02-17T12:25:05.459Z,53.54
2019-02-17T12:30:02.946Z,52.57
2019-02-17T12:35:04.806Z,52.6
2019-02-17T12:40:06.289Z,52.7
2019-02-17T12:45:03.311Z,52.57
2019-02-17T12:50:07.836Z,51.91
2019-02-17T12:55:07.374Z,51.87
2019-02-17T13:00:03.353Z,52.71
2019-02-17T13:05:06.734Z,52.04
2019-02-17T13:10:06.369Z,52.4
2019-02-17T13:15:03.464Z,52.14
2019-02-17T13:20:06.790Z,52.19
2019-02-17T13:25:07.205Z,52.22
2019-02-17T13:30:03.324Z,52.4
2019-02-17T13:35:05.223Z,51.38
2019-02-17T13:40:06.286Z,51.57
2019-02-17T13:45:03.382Z,51.14
2019-02-17T13:50:05.327Z,51.13
2019-02-17T13:55:07.416Z,51.25
2019-02-17T14:00:05.052Z,50.93
2019-02-17T14:05:07.224Z,50.48
2019-02-17T14:10:05.594Z,50.94
2019-02-17T14:15:03.652Z,49.87
2019-02-17T14:20:07.538Z,49.79
2019-02-17T14:25:06.443Z,49.4
2019-02-17T14:30:03.537Z,49.3
2019-02-17T14:35:06.857Z,49.13
2019-02-17T14:40:08.166Z,49.16
2019-02-17T14:45:04.105Z,49.23
2019-02-17T14:50:07.218Z,48.76
2019-02-17T14:55:07.070Z,49.12
2019-02-17T15:00:04.000Z,49.42
2019-02-17T15:05:06.537Z,49.11
2019-02-17T15:10:08.847Z,49.24
2019-02-17T15:15:03.625Z,49.45
2019-02-17T15:20:06.514Z,49.42
2019-02-17T15:25:07.539Z,49.39
2019-02-17T15:30:04.211Z,49.27
2019-02-17T15:35:06.437Z,49.23
2019-02-17T15:40:07.463Z,49.45
2019-02-17T15:45:03.968Z,49.87
2019-02-17T15:50:06.440Z,49.86
2019-02-17T15:55:09.298Z,50.51
2019-02-17T16:00:06.191Z,50.5
2019-02-17T16:05:09.185Z,49.67
2019-02-17T16:10:07.407Z,49.64
2019-02-17T16:15:03.986Z,49.55
2019-02-17T16:20:09.050Z,50.02
2019-02-17T16:25:07.548Z,50.71
2019-02-17T16:30:04.112Z,51
2019-02-17T16:35:07.151Z,51.26
2019-02-17T16:40:07.352Z,51.52
2019-02-17T16:45:03.925Z,51.46
2019-02-17T16:50:06.340Z,52.1
2019-02-17T16:55:06.413Z,52.53
2019-02-17T17:00:03.882Z,53.4
2019-02-17T17:05:07.428Z,53.48
2019-02-17T17:10:04.411Z,52.79
2019-02-17T17:15:05.390Z,52
2019-02-17T17:20:06.453Z,50.36
2019-02-17T17:25:07.665Z,49.51
2019-02-17T17:30:03.667Z,51.94
2019-02-17T17:35:06.315Z,53.72
2019-02-17T17:40:06.679Z,55.5
2019-02-17T17:45:04.280Z,56.77
2019-02-17T17:50:06.237Z,58.72
2019-02-17T17:55:06.541Z,55.15
2019-02-17T18:00:03.514Z,51.07
2019-02-17T18:05:11.705Z,52.75
2019-02-17T18:10:07.175Z,53.25
2019-02-17T18:15:03.345Z,54.08
2019-02-17T18:20:06.791Z,52.57
2019-02-17T18:25:07.762Z,52.79
2019-02-17T18:30:03.637Z,52.84
2019-02-17T18:35:07.418Z,53.67
2019-02-17T18:40:06.903Z,53.96
2019-02-17T18:45:03.862Z,53.1
2019-02-17T18:50:07.085Z,51.75
2019-02-17T18:55:07.793Z,51.5
2019-02-17T19:00:03.293Z,51.32
2019-02-17T19:05:06.472Z,51.68
2019-02-17T19:10:07.121Z,52.35
2019-02-17T19:15:02.800Z,52.91
2019-02-17T19:20:06.640Z,53.67
2019-02-17T19:25:07.096Z,54.18
2019-02-17T19:30:02.650Z,54.36
2019-02-17T19:35:05.927Z,54.23
2019-02-17T19:40:05.199Z,54.18
2019-02-17T19:45:02.756Z,54.68
2019-02-17T19:50:05.692Z,53.86
2019-02-17T19:55:07.457Z,53.96
2019-02-17T20:00:03.497Z,54.51
2019-02-17T20:05:06.178Z,54.87
2019-02-17T20:10:06.657Z,55.24
2019-02-17T20:15:03.709Z,55.33
2019-02-17T20:20:06.939Z,56.15
2019-02-17T20:25:08.993Z,56.54
2019-02-17T20:30:04.087Z,57.3
2019-02-17T20:35:08.878Z,58.05
2019-02-17T20:40:07.589Z,58.29
2019-02-17T20:45:08.849Z,58.21
2019-02-17T20:50:10.928Z,57.54
2019-02-17T20:55:11.475Z,57.07
2019-02-17T21:00:10.203Z,56.98
2019-02-17T21:05:12.870Z,56.5
2019-02-17T21:10:18.292Z,56.11
2019-02-17T21:15:10.901Z,56.24
2019-02-17T21:20:09.518Z,56.16
2019-02-17T21:25:11.700Z,56.2
2019-02-17T21:30:14.964Z,56.57
2019-02-17T21:35:10.291Z,57.85
2019-02-17T21:40:15.457Z,58.39
2019-02-17T21:45:14.369Z,57.95
2019-02-17T21:50:14.703Z,58.37
2019-02-17T21:55:15.038Z,58.82
2019-02-17T22:00:11.642Z,60.33
2019-02-17T22:05:09.125Z,61.6
2019-02-17T22:10:10.989Z,62.05
2019-02-17T22:15:05.925Z,61.84
2019-02-17T22:20:08.517Z,61.67
2019-02-17T22:25:07.096Z,62.34
2019-02-17T22:30:06.295Z,62.72
2019-02-17T22:35:08.964Z,63.06
2019-02-17T22:40:10.232Z,62.53
2019-02-17T22:45:13.447Z,62.38
2019-02-17T22:50:12.925Z,62.48
2019-02-17T22:55:13.081Z,62.61
2019-02-17T23:00:10.284Z,62.86
2019-02-17T23:05:09.828Z,63.09
2019-02-17T23:10:09.396Z,63.08
2019-02-17T23:15:18.525Z,63.02
2019-02-17T23:20:10.419Z,63.22
2019-02-17T23:25:12.324Z,63.46
2019-02-17T23:30:12.204Z,63.97
2019-02-17T23:35:13.274Z,64.71
2019-02-17T23:40:14.243Z,65.06
2019-02-17T23:45:11.566Z,65.46
2019-02-17T23:50:09.481Z,65.46
2019-02-17T23:55:11.089Z,65.24
